createdAt,value
2019-03-08T00:02:00.020Z,7.84
2019-03-08T00:04:29.186Z,7.81
2019-03-08T00:06:58.056Z,7.77
2019-03-08T00:09:26.925Z,7.78
2019-03-08T00:11:55.817Z,7.76
2019-03-08T00:14:24.712Z,7.77
2019-03-08T00:16:53.637Z,7.73
2019-03-08T00:19:22.511Z,7.70
2019-03-08T00:21:51.396Z,7.78
2019-03-08T00:24:20.195Z,7.82
2019-03-08T00:26:49.205Z,7.82
2019-03-08T00:29:18.529Z,7.88
2019-03-08T00:31:47.426Z,7.94
2019-03-08T00:34:16.246Z,7.92
2019-03-08T00:36:45.301Z,7.89
2019-03-08T00:39:14.180Z,7.75
2019-03-08T00:41:43.153Z,7.85
2019-03-08T00:44:12.257Z,7.88
2019-03-08T00:46:41.153Z,7.87
2019-03-08T00:49:10.090Z,7.79
2019-03-08T00:51:38.983Z,7.79
2019-03-08T00:54:07.876Z,7.74
2019-03-08T00:56:36.705Z,7.75
2019-03-08T00:59:05.830Z,7.68
2019-03-08T01:01:34.723Z,7.70
2019-03-08T01:04:03.719Z,7.62
2019-03-08T01:06:33.643Z,7.57
2019-03-08T01:09:04.952Z,7.53
2019-03-08T01:11:34.000Z,7.51
2019-03-08T01:14:04.077Z,7.63
2019-03-08T01:16:33.997Z,7.68
2019-03-08T01:19:02.893Z,7.60
2019-03-08T01:21:31.785Z,7.58
2019-03-08T01:24:00.730Z,7.70
2019-03-08T01:26:30.134Z,7.64
2019-03-08T01:28:59.245Z,7.63
2019-03-08T01:31:28.077Z,7.75
2019-03-08T01:33:57.065Z,7.86
2019-03-08T01:36:26.026Z,7.88
2019-03-08T01:38:55.004Z,7.88
2019-03-08T01:41:23.960Z,7.86
2019-03-08T01:43:52.867Z,7.91
2019-03-08T01:46:21.781Z,7.86
2019-03-08T01:48:50.655Z,7.85
2019-03-08T01:51:19.531Z,7.78
2019-03-08T01:53:48.488Z,7.87
2019-03-08T01:56:17.381Z,8.00
2019-03-08T01:58:46.253Z,8.00
2019-03-08T02:01:15.279Z,7.95
2019-03-08T02:03:44.227Z,8.04
2019-03-08T02:06:13.118Z,8.20
2019-03-08T02:08:43.328Z,8.24
2019-03-08T02:11:12.453Z,8.29
2019-03-08T02:13:41.407Z,8.37
2019-03-08T02:16:10.438Z,8.26
2019-03-08T02:18:39.246Z,8.26
2019-03-08T02:21:08.310Z,8.20
2019-03-08T02:23:37.113Z,8.14
2019-03-08T02:26:06.689Z,8.29
2019-03-08T02:28:35.518Z,8.40
2019-03-08T02:31:04.388Z,8.41
2019-03-08T02:33:33.278Z,8.47
2019-03-08T02:36:02.136Z,8.50
2019-03-08T02:38:31.109Z,8.63
2019-03-08T02:40:59.984Z,8.66
2019-03-08T02:43:28.878Z,8.59
2019-03-08T02:45:57.794Z,7.46
2019-03-08T02:48:26.704Z,6.82
2019-03-08T02:50:55.653Z,6.49
2019-03-08T02:53:24.665Z,6.34
2019-03-08T02:55:53.556Z,6.23
2019-03-08T02:58:22.456Z,6.09
2019-03-08T03:00:51.356Z,6.07
2019-03-08T03:03:20.433Z,6.07
2019-03-08T03:05:49.663Z,5.96
2019-03-08T03:08:18.612Z,6.00
2019-03-08T03:10:47.557Z,6.05
2019-03-08T03:13:16.438Z,6.02
2019-03-08T03:15:45.393Z,6.02
2019-03-08T03:18:14.285Z,6.04
2019-03-08T03:20:43.101Z,6.06
2019-03-08T03:23:11.922Z,6.09
2019-03-08T03:25:40.897Z,6.08
2019-03-08T03:28:09.860Z,6.02
2019-03-08T03:30:39.540Z,6.02
2019-03-08T03:33:08.521Z,6.09
2019-03-08T03:35:37.340Z,6.04
2019-03-08T03:38:06.350Z,6.03
2019-03-08T03:40:35.330Z,6.07
2019-03-08T03:43:04.414Z,6.03
2019-03-08T03:45:33.300Z,6.14
2019-03-08T03:48:02.206Z,6.19
2019-03-08T03:50:31.265Z,6.12
2019-03-08T03:53:00.226Z,6.10
2019-03-08T03:55:29.207Z,6.02
2019-03-08T03:57:58.185Z,6.01
2019-03-08T04:00:27.144Z,5.94
2019-03-08T04:02:56.409Z,6.04
2019-03-08T04:05:25.382Z,6.05
2019-03-08T04:07:54.174Z,6.07
2019-03-08T04:10:23.144Z,6.07
2019-03-08T04:12:52.142Z,6.15
2019-03-08T04:15:21.237Z,6.10
2019-03-08T04:17:50.212Z,6.19
2019-03-08T04:20:19.325Z,6.13
2019-03-08T04:22:48.310Z,6.15
2019-03-08T04:25:17.265Z,6.19
2019-03-08T04:27:46.232Z,6.19
2019-03-08T04:30:15.861Z,6.29
2019-03-08T04:32:44.754Z,6.21
2019-03-08T04:35:13.714Z,6.23
2019-03-08T04:37:42.675Z,6.28
2019-03-08T04:40:12.843Z,6.26
2019-03-08T04:42:42.947Z,6.26
2019-03-08T04:45:13.299Z,6.27
2019-03-08T04:47:42.998Z,6.34
2019-03-08T04:50:11.977Z,6.30
2019-03-08T04:52:41.028Z,6.29
2019-03-08T04:55:11.888Z,6.38
2019-03-08T04:57:40.944Z,6.37
2019-03-08T05:00:11.204Z,6.43
2019-03-08T05:02:40.383Z,6.41
2019-03-08T05:05:09.396Z,6.36
2019-03-08T05:07:38.188Z,6.35
2019-03-08T05:10:08.334Z,6.40
2019-03-08T05:12:37.156Z,6.45
2019-03-08T05:15:06.330Z,6.46
2019-03-08T05:17:35.361Z,6.50
2019-03-08T05:20:04.499Z,6.59
2019-03-08T05:22:33.439Z,6.62
2019-03-08T05:25:02.332Z,6.58
2019-03-08T05:27:31.705Z,6.63
2019-03-08T05:30:00.521Z,6.64
2019-03-08T05:32:29.368Z,6.67
2019-03-08T05:34:58.248Z,6.71
2019-03-08T05:37:27.068Z,6.63
2019-03-08T05:39:55.953Z,6.56
2019-03-08T05:42:25.126Z,6.55
2019-03-08T05:44:54.050Z,6.59
2019-03-08T05:47:23.011Z,6.58
2019-03-08T05:49:51.904Z,6.63
2019-03-08T05:52:20.921Z,6.66
2019-03-08T05:54:50.039Z,6.72
2019-03-08T05:57:19.434Z,6.65
2019-03-08T05:59:48.433Z,6.73
2019-03-08T06:02:17.410Z,6.75
2019-03-08T06:04:46.667Z,6.78
2019-03-08T06:07:15.706Z,6.79
2019-03-08T06:09:44.622Z,6.80
2019-03-08T06:12:13.621Z,6.76
2019-03-08T06:14:42.410Z,6.74
2019-03-08T06:17:11.456Z,6.77
2019-03-08T06:19:40.387Z,6.80
2019-03-08T06:22:09.542Z,6.78
2019-03-08T06:24:38.377Z,6.76
2019-03-08T06:27:07.718Z,6.78
2019-03-08T06:29:36.524Z,6.77
2019-03-08T06:32:05.470Z,6.71
2019-03-08T06:34:34.326Z,6.70
2019-03-08T06:37:03.464Z,6.57
2019-03-08T06:39:32.275Z,6.43
2019-03-08T06:42:01.343Z,6.50
2019-03-08T06:44:30.156Z,6.50
2019-03-08T06:46:59.185Z,6.58
2019-03-08T06:49:28.016Z,6.68
2019-03-08T06:51:56.911Z,6.64
2019-03-08T06:54:25.855Z,6.65
2019-03-08T06:56:55.049Z,6.50
2019-03-08T06:59:37.570Z,6.50
2019-03-08T07:02:06.392Z,6.47
2019-03-08T07:04:35.285Z,6.50
2019-03-08T07:07:04.255Z,6.52
2019-03-08T07:09:33.552Z,6.55
2019-03-08T07:12:02.520Z,6.60
2019-03-08T07:14:31.427Z,6.76
2019-03-08T07:17:00.325Z,6.96
2019-03-08T07:19:29.295Z,6.96
2019-03-08T07:22:05.176Z,6.97
2019-03-08T07:24:53.071Z,7.06
2019-03-08T07:27:50.462Z,7.27
2019-03-08T07:30:37.781Z,7.28
2019-03-08T07:33:16.049Z,7.30
2019-03-08T07:35:59.703Z,7.37
2019-03-08T07:38:50.386Z,7.69
2019-03-08T07:41:36.418Z,7.86
2019-03-08T07:44:23.257Z,7.85
2019-03-08T07:46:58.657Z,8.06
2019-03-08T07:49:35.764Z,8.35
2019-03-08T07:52:25.887Z,8.30
2019-03-08T07:55:10.878Z,8.26
2019-03-08T07:57:53.284Z,8.09
2019-03-08T08:00:39.114Z,8.10
2019-03-08T08:03:27.131Z,8.21
2019-03-08T08:06:18.147Z,8.20
2019-03-08T08:09:08.802Z,8.23
2019-03-08T08:11:55.398Z,8.19
2019-03-08T08:14:40.581Z,8.36
2019-03-08T08:17:34.750Z,8.42
2019-03-08T08:20:35.370Z,8.41
2019-03-08T08:23:09.683Z,8.47
2019-03-08T08:25:56.803Z,8.70
2019-03-08T08:28:59.962Z,8.66
2019-03-08T08:31:43.929Z,8.49
2019-03-08T08:34:21.947Z,8.64
2019-03-08T08:37:08.579Z,8.83
2019-03-08T08:40:11.548Z,8.74
2019-03-08T08:43:05.408Z,8.85
2019-03-08T08:45:53.547Z,8.85
2019-03-08T08:48:39.316Z,8.81
2019-03-08T08:51:30.259Z,8.92
2019-03-08T08:54:23.897Z,8.95
2019-03-08T08:57:03.089Z,8.96
2019-03-08T08:59:49.865Z,8.84
2019-03-08T09:02:25.786Z,9.01
2019-03-08T09:05:02.808Z,8.93
2019-03-08T09:07:56.802Z,8.79
2019-03-08T09:10:32.796Z,8.78
2019-03-08T09:13:15.142Z,8.87
2019-03-08T09:15:59.737Z,9.01
2019-03-08T09:18:56.956Z,9.29
2019-03-08T09:21:43.009Z,9.32
2019-03-08T09:24:29.649Z,9.48
2019-03-08T09:27:14.002Z,9.68
2019-03-08T09:30:01.902Z,9.75
2019-03-08T09:32:48.507Z,9.97
2019-03-08T09:35:31.856Z,10.29
2019-03-08T09:38:06.963Z,10.64
2019-03-08T09:41:03.618Z,10.67
2019-03-08T09:43:50.030Z,10.68
2019-03-08T09:46:37.066Z,10.35
2019-03-08T09:49:19.193Z,10.33
2019-03-08T09:52:04.061Z,10.28
2019-03-08T09:54:45.362Z,10.20
2019-03-08T09:57:42.228Z,10.52
2019-03-08T10:00:39.607Z,10.90
2019-03-08T10:03:17.289Z,10.66
2019-03-08T10:06:03.990Z,10.53
2019-03-08T10:08:51.162Z,10.23
2019-03-08T10:11:24.416Z,10.20
2019-03-08T10:14:03.721Z,10.04
2019-03-08T10:16:51.542Z,10.21
2019-03-08T10:19:32.224Z,10.52
2019-03-08T10:22:19.104Z,10.88
2019-03-08T10:25:01.506Z,11.08
2019-03-08T10:27:48.020Z,10.98
2019-03-08T10:30:39.165Z,11.18
2019-03-08T10:33:17.132Z,11.05
2019-03-08T10:35:56.641Z,11.21
2019-03-08T10:38:47.648Z,11.31
2019-03-08T10:41:33.335Z,11.66
2019-03-08T10:44:22.079Z,11.21
2019-03-08T10:46:56.700Z,11.08
2019-03-08T10:49:55.444Z,10.88
2019-03-08T10:52:43.683Z,10.58
2019-03-08T10:55:50.624Z,10.47
2019-03-08T10:58:29.271Z,10.61
2019-03-08T11:01:16.228Z,10.37
2019-03-08T11:03:58.151Z,10.26
2019-03-08T11:06:40.024Z,10.31
2019-03-08T11:09:31.185Z,10.35
2019-03-08T11:12:17.977Z,10.27
2019-03-08T11:15:04.730Z,10.38
2019-03-08T11:17:50.755Z,10.34
2019-03-08T11:20:26.129Z,10.41
2019-03-08T11:23:30.019Z,10.34
2019-03-08T11:26:16.750Z,10.14
2019-03-08T11:29:07.571Z,10.20
2019-03-08T11:31:55.128Z,10.19
2019-03-08T11:34:41.650Z,10.29
2019-03-08T11:37:35.750Z,10.06
2019-03-08T11:40:40.026Z,10.14
2019-03-08T11:43:16.562Z,10.18
2019-03-08T11:45:51.709Z,10.46
2019-03-08T11:48:39.851Z,10.61
2019-03-08T11:51:25.024Z,10.41
2019-03-08T11:54:12.934Z,10.19
2019-03-08T11:57:04.012Z,10.00
2019-03-08T12:00:07.445Z,10.07
2019-03-08T12:02:46.685Z,10.04
2019-03-08T12:05:37.469Z,10.34
2019-03-08T12:08:22.580Z,10.83
2019-03-08T12:11:25.895Z,10.95
2019-03-08T12:14:11.365Z,11.17
2019-03-08T12:16:58.934Z,10.85
2019-03-08T12:19:36.926Z,11.12
2019-03-08T12:22:16.820Z,11.61
2019-03-08T12:24:54.194Z,11.72
2019-03-08T12:27:34.415Z,11.76
2019-03-08T12:30:21.125Z,11.81
2019-03-08T12:33:00.137Z,11.68
2019-03-08T12:35:37.625Z,11.55
2019-03-08T12:38:19.950Z,11.84
2019-03-08T12:40:57.410Z,12.00
2019-03-08T12:43:37.640Z,12.13
2019-03-08T12:46:20.297Z,12.17
2019-03-08T12:48:59.027Z,12.21
2019-03-08T12:51:41.312Z,11.97
2019-03-08T12:54:28.175Z,11.96
2019-03-08T12:57:19.080Z,11.71
2019-03-08T13:00:00.309Z,11.57
2019-03-08T13:02:42.419Z,11.56
2019-03-08T13:05:34.194Z,11.58
2019-03-08T13:08:17.370Z,11.44
2019-03-08T13:10:46.403Z,11.51
2019-03-08T13:13:15.340Z,10.94
2019-03-08T13:15:44.230Z,9.64
2019-03-08T13:18:13.123Z,9.15
2019-03-08T13:20:42.262Z,8.71
2019-03-08T13:23:11.155Z,8.66
2019-03-08T13:25:40.023Z,9.09
2019-03-08T13:28:08.851Z,9.61
2019-03-08T13:30:37.699Z,9.63
2019-03-08T13:33:06.606Z,9.51
2019-03-08T13:35:35.853Z,9.91
2019-03-08T13:38:06.819Z,9.94
2019-03-08T13:40:35.726Z,9.78
2019-03-08T13:43:04.729Z,9.92
2019-03-08T13:45:33.683Z,9.79
2019-03-08T13:48:02.673Z,9.61
2019-03-08T13:50:32.108Z,9.61
2019-03-08T13:53:01.175Z,9.46
2019-03-08T13:55:30.684Z,9.39
2019-03-08T13:57:59.862Z,9.39
2019-03-08T14:00:28.829Z,9.36
2019-03-08T14:02:57.800Z,9.02
2019-03-08T14:05:26.808Z,9.03
2019-03-08T14:07:55.755Z,9.12
2019-03-08T14:10:24.879Z,9.61
2019-03-08T14:12:53.782Z,9.89
2019-03-08T14:15:22.748Z,9.74
2019-03-08T14:17:51.718Z,9.37
2019-03-08T14:20:21.059Z,9.13
2019-03-08T14:22:49.989Z,9.12
2019-03-08T14:25:19.044Z,9.19
2019-03-08T14:27:48.135Z,9.53
2019-03-08T14:30:18.385Z,9.84
2019-03-08T14:32:47.445Z,9.75
2019-03-08T14:35:16.475Z,9.93
2019-03-08T14:37:45.351Z,10.01
2019-03-08T14:40:23.787Z,10.22
2019-03-08T14:42:59.080Z,10.27
2019-03-08T14:45:44.534Z,10.23
2019-03-08T14:48:13.333Z,10.43
2019-03-08T14:50:42.354Z,10.61
2019-03-08T14:53:11.292Z,10.62
2019-03-08T14:55:40.139Z,10.61
2019-03-08T14:58:09.165Z,10.68
2019-03-08T15:00:38.127Z,10.65
2019-03-08T15:03:07.283Z,10.98
2019-03-08T15:05:36.242Z,11.10
2019-03-08T15:08:05.225Z,11.11
2019-03-08T15:10:39.523Z,11.32
2019-03-08T15:13:05.041Z,11.31
2019-03-08T15:15:34.010Z,11.33
2019-03-08T15:18:03.507Z,10.93
2019-03-08T15:20:33.695Z,10.68
2019-03-08T15:23:02.579Z,10.52
2019-03-08T15:25:31.618Z,10.39
2019-03-08T15:28:00.569Z,10.35
2019-03-08T15:30:29.567Z,10.31
2019-03-08T15:32:58.846Z,10.05
2019-03-08T15:35:27.772Z,9.90
2019-03-08T15:37:56.723Z,9.92
2019-03-08T15:40:25.735Z,10.06
2019-03-08T15:42:54.627Z,10.02
2019-03-08T15:45:23.580Z,9.65
2019-03-08T15:47:52.486Z,9.38
2019-03-08T15:50:21.662Z,9.47
2019-03-08T15:52:51.508Z,9.70
2019-03-08T15:55:20.604Z,9.70
2019-03-08T15:57:49.563Z,9.74
2019-03-08T16:00:19.766Z,9.58
2019-03-08T16:02:48.963Z,9.45
2019-03-08T16:05:17.952Z,9.48
2019-03-08T16:07:47.151Z,9.33
2019-03-08T16:10:16.568Z,9.39
2019-03-08T16:12:46.624Z,9.36
2019-03-08T16:15:15.914Z,9.32
2019-03-08T16:17:44.892Z,9.29
2019-03-08T16:20:15.049Z,9.33
2019-03-08T16:22:44.283Z,9.34
2019-03-08T16:25:14.070Z,9.20
2019-03-08T16:27:43.072Z,9.00
2019-03-08T16:30:33.416Z,8.92
2019-03-08T16:33:23.393Z,8.91
2019-03-08T16:36:08.500Z,8.92
2019-03-08T16:38:52.510Z,9.00
2019-03-08T16:41:38.827Z,8.85
2019-03-08T16:44:20.148Z,8.92
2019-03-08T16:46:55.538Z,8.88
2019-03-08T16:49:38.885Z,8.65
2019-03-08T16:52:34.392Z,8.57
2019-03-08T16:55:26.482Z,8.49
2019-03-08T16:58:13.123Z,8.41
2019-03-08T17:00:58.193Z,8.32
2019-03-08T17:03:40.704Z,8.23
2019-03-08T17:06:29.345Z,8.10
2019-03-08T17:09:20.230Z,8.14
2019-03-08T17:12:05.749Z,8.12
2019-03-08T17:14:55.787Z,8.12
2019-03-08T17:17:59.322Z,8.06
2019-03-08T17:20:43.797Z,8.08
2019-03-08T17:23:37.743Z,8.09
2019-03-08T17:26:29.013Z,7.98
2019-03-08T17:29:22.664Z,8.00
2019-03-08T17:31:58.146Z,7.97
2019-03-08T17:34:35.852Z,7.94
2019-03-08T17:37:14.493Z,7.86
2019-03-08T17:39:59.471Z,7.72
2019-03-08T17:42:44.240Z,7.73
2019-03-08T17:45:41.313Z,7.74
2019-03-08T17:48:25.364Z,7.64
2019-03-08T17:51:31.627Z,7.54
2019-03-08T17:54:17.031Z,7.42
2019-03-08T17:57:03.639Z,7.25
2019-03-08T17:59:58.666Z,7.26
2019-03-08T18:02:49.557Z,7.34
2019-03-08T18:05:29.344Z,7.22
2019-03-08T18:08:28.154Z,7.20
2019-03-08T18:11:09.462Z,7.18
2019-03-08T18:13:54.015Z,7.14
2019-03-08T18:16:39.451Z,7.22
2019-03-08T18:19:30.027Z,7.19
2019-03-08T18:22:04.618Z,7.21
2019-03-08T18:25:07.875Z,7.17
2019-03-08T18:27:54.767Z,7.12
2019-03-08T18:30:39.645Z,7.31
2019-03-08T18:33:26.384Z,7.36
2019-03-08T18:36:10.424Z,7.29
2019-03-08T18:38:58.372Z,7.29
2019-03-08T18:41:33.991Z,7.14
2019-03-08T18:44:27.747Z,7.12
2019-03-08T18:47:18.543Z,7.15
2019-03-08T18:50:06.421Z,7.17
2019-03-08T18:53:12.953Z,7.13
2019-03-08T18:55:57.282Z,7.20
2019-03-08T18:58:45.166Z,7.32
2019-03-08T19:01:43.026Z,7.29
2019-03-08T19:04:17.975Z,7.25
2019-03-08T19:07:08.586Z,7.26
2019-03-08T19:09:48.333Z,7.20
2019-03-08T19:12:28.361Z,7.11
2019-03-08T19:15:22.317Z,7.00
2019-03-08T19:18:02.069Z,6.93
2019-03-08T19:20:42.016Z,6.93
2019-03-08T19:23:22.708Z,6.93
2019-03-08T19:26:08.014Z,6.87
2019-03-08T19:28:48.469Z,6.92
2019-03-08T19:31:48.757Z,7.01
2019-03-08T19:34:32.775Z,7.07
2019-03-08T19:37:19.530Z,7.06
2019-03-08T19:40:06.305Z,7.15
2019-03-08T19:43:02.841Z,7.19
2019-03-08T19:45:42.403Z,7.20
2019-03-08T19:48:29.011Z,7.14
2019-03-08T19:51:19.351Z,7.12
2019-03-08T19:53:52.750Z,6.98
2019-03-08T19:56:39.816Z,6.91
2019-03-08T19:59:19.028Z,6.93
2019-03-08T20:02:16.298Z,6.98
2019-03-08T20:05:04.967Z,7.06
2019-03-08T20:07:51.820Z,6.98
2019-03-08T20:10:36.183Z,7.05
2019-03-08T20:13:24.379Z,6.98
2019-03-08T20:16:18.512Z,7.01
2019-03-08T20:19:09.349Z,7.00
2019-03-08T20:22:00.669Z,6.93
2019-03-08T20:24:45.854Z,7.03
2019-03-08T20:27:29.699Z,7.09
2019-03-08T20:30:16.485Z,7.07
2019-03-08T20:33:04.027Z,7.06
2019-03-08T20:35:50.453Z,7.11
2019-03-08T20:38:31.082Z,7.13
2019-03-08T20:41:15.703Z,7.13
2019-03-08T20:43:50.010Z,7.15
2019-03-08T20:46:26.790Z,7.15
2019-03-08T20:48:55.959Z,7.10
2019-03-08T20:51:24.870Z,7.04
2019-03-08T20:53:53.740Z,7.02
2019-03-08T20:56:22.866Z,7.14
2019-03-08T20:58:51.744Z,7.05
2019-03-08T21:01:20.741Z,6.97
2019-03-08T21:03:49.804Z,7.01
2019-03-08T21:06:18.965Z,7.02
2019-03-08T21:08:47.805Z,6.90
2019-03-08T21:11:16.751Z,6.89
2019-03-08T21:13:45.693Z,6.86
2019-03-08T21:16:14.875Z,6.86
2019-03-08T21:18:43.703Z,6.85
2019-03-08T21:21:12.693Z,6.81
2019-03-08T21:23:41.667Z,6.79
2019-03-08T21:26:10.514Z,6.88
2019-03-08T21:28:39.650Z,6.79
2019-03-08T21:31:08.654Z,6.86
2019-03-08T21:33:37.512Z,6.81
2019-03-08T21:36:06.738Z,6.82
2019-03-08T21:38:35.840Z,6.81
2019-03-08T21:41:04.843Z,6.79
2019-03-08T21:43:33.777Z,6.78
2019-03-08T21:46:02.665Z,6.74
2019-03-08T21:48:31.694Z,6.73
2019-03-08T21:51:00.519Z,6.85
2019-03-08T21:53:29.406Z,6.95
2019-03-08T21:55:59.377Z,7.03
2019-03-08T21:58:28.398Z,7.06
2019-03-08T22:02:39.893Z,7.05
2019-03-08T22:05:08.868Z,7.02
2019-03-08T22:07:37.805Z,6.91
2019-03-08T22:10:21.269Z,6.86
2019-03-08T22:12:50.242Z,6.87
2019-03-08T22:15:19.564Z,6.89
2019-03-08T22:17:48.520Z,6.82
2019-03-08T22:20:17.412Z,6.68
2019-03-08T22:22:46.452Z,6.74
2019-03-08T22:25:15.341Z,6.65
2019-03-08T22:27:44.353Z,6.73
2019-03-08T22:30:15.010Z,6.77
2019-03-08T22:32:43.903Z,6.80
2019-03-08T22:35:12.794Z,6.82
2019-03-08T22:37:41.661Z,6.85
2019-03-08T22:40:10.807Z,6.85
2019-03-08T22:42:40.092Z,6.94
2019-03-08T22:45:09.439Z,6.95
2019-03-08T22:47:38.332Z,7.01
2019-03-08T22:50:08.069Z,7.12
2019-03-08T22:52:37.121Z,7.18
2019-03-08T22:55:06.689Z,7.04
2019-03-08T22:57:35.646Z,7.03
2019-03-08T23:00:08.116Z,6.95
2019-03-08T23:02:37.787Z,6.88
2019-03-08T23:05:07.410Z,6.85
2019-03-08T23:07:36.300Z,6.80
2019-03-08T23:10:09.693Z,6.85
2019-03-08T23:12:38.605Z,6.91
2019-03-08T23:15:07.601Z,6.94
2019-03-08T23:17:36.630Z,6.94
2019-03-08T23:20:06.114Z,7.02
2019-03-08T23:22:35.228Z,7.13
2019-03-08T23:25:04.296Z,7.19
2019-03-08T23:27:38.517Z,7.20
2019-03-08T23:30:18.337Z,7.18
2019-03-08T23:32:50.048Z,7.24
2019-03-08T23:35:18.925Z,7.28
2019-03-08T23:37:47.750Z,7.38
2019-03-08T23:40:16.635Z,7.37
2019-03-08T23:42:45.939Z,7.43
2019-03-08T23:45:15.079Z,7.40
2019-03-08T23:47:44.048Z,7.36
2019-03-08T23:50:13.038Z,7.35
2019-03-08T23:52:42.517Z,7.29
2019-03-08T23:55:11.625Z,7.32
2019-03-08T23:57:40.475Z,7.29
